58.9°F
Current conditions from King Hill
Updated every 5 minutes
 
  Tuesday July 29, 2014

Station Historical Data
Daily Summary for April 10, 2012 Units:  Both    English   Metric
« Previous Day
Next Day »
Daily Weekly Monthly Yearly Custom
  High: Low: Average:
Temperature: 45.4 °F /  7.4 °C 37.2 °F /  2.9 °C 39.4 °F /  4.1 °C
Dew Point: 39.6 °F /  4.2 °C 33.3 °F /  0.7 °C 35.5 °F /  1.9 °C
Humidity: 89% 75% 86%
Wind Speed: 8.0mph /  12.9km/h - 3.2mph /  5.1km/h
Wind Gust: 14.0mph /  22.5km/h - -
Wind- - SW
Pressure: 29.70 in /  1005.6 hPa 29.47 in /  997.9 hPa -
Precipitation: 0.63 in /  16 mm    
Historical Graphs
 
 
Tabular Data for April 10, 2012
Time Temperature Dew Point Pressure Wind Wind Speed Wind Gust Humidity Daily Rainfall
00:04 37.4 °F /  3 °C 34.2 °F /  1.2 °C 29.49in /  998.5hPa WSW 7.0mph /  11.3km/h 14.0mph /  22.5km/h 88% 0.00in /  0mm
00:09 37.4 °F /  3 °C 34.2 °F /  1.2 °C 29.49in /  998.5hPa WSW 6.0mph /  9.7km/h 14.0mph /  22.5km/h 88% 0.00in /  0mm
00:14 37.4 °F /  3 °C 34.2 °F /  1.2 °C 29.49in /  998.5hPa WSW 6.0mph /  9.7km/h 11.0mph /  17.7km/h 88% 0.00in /  0mm
00:19 37.4 °F /  3 °C 34.2 °F /  1.2 °C 29.49in /  998.5hPa WSW 5.0mph /  8km/h 11.0mph /  17.7km/h 88% 0.00in /  0mm
00:24 37.3 °F /  2.9 °C 34.1 °F /  1.2 °C 29.49in /  998.5hPa WSW 6.0mph /  9.7km/h 10.0mph /  16.1km/h 88% 0.00in /  0mm
00:29 37.3 °F /  2.9 °C 34.1 °F /  1.2 °C 29.49in /  998.5hPa WSW 6.0mph /  9.7km/h 12.0mph /  19.3km/h 88% 0.00in /  0mm
00:34 37.3 °F /  2.9 °C 34.1 °F /  1.2 °C 29.49in /  998.5hPa WSW 5.0mph /  8km/h 12.0mph /  19.3km/h 88% 0.00in /  0mm
00:39 37.3 °F /  2.9 °C 34.1 °F /  1.2 °C 29.49in /  998.5hPa WSW 4.0mph /  6.4km/h 9.0mph /  14.5km/h 88% 0.00in /  0mm
00:44 37.3 °F /  2.9 °C 34.1 °F /  1.2 °C 29.49in /  998.5hPa WSW 4.0mph /  6.4km/h 11.0mph /  17.7km/h 88% 0.00in /  0mm
00:49 37.3 °F /  2.9 °C 34.1 °F /  1.2 °C 29.49in /  998.5hPa SW 4.0mph /  6.4km/h 11.0mph /  17.7km/h 88% 0.00in /  0mm
00:59 37.4 °F /  3 °C 34.2 °F /  1.2 °C 29.49in /  998.5hPa West 3.0mph /  4.8km/h 10.0mph /  16.1km/h 88% 0.00in /  0mm
01:04 37.4 °F /  3 °C 34.2 °F /  1.2 °C 29.49in /  998.5hPa SW 3.0mph /  4.8km/h 10.0mph /  16.1km/h 88% 0.01in /  0.3mm
01:09 37.5 °F /  3.1 °C 34.0 °F /  1.1 °C 29.49in /  998.5hPa West 4.0mph /  6.4km/h 11.0mph /  17.7km/h 87% 0.01in /  0.3mm
01:14 37.5 °F /  3.1 °C 34.0 °F /  1.1 °C 29.49in /  998.5hPa SW 4.0mph /  6.4km/h 11.0mph /  17.7km/h 87% 0.01in /  0.3mm
01:19 37.5 °F /  3.1 °C 34.0 °F /  1.1 °C 29.49in /  998.5hPa WSW 5.0mph /  8km/h 9.0mph /  14.5km/h 87% 0.01in /  0.3mm
01:24 37.4 °F /  3 °C 33.9 °F /  1.1 °C 29.49in /  998.5hPa SSW 2.0mph /  3.2km/h 9.0mph /  14.5km/h 87% 0.01in /  0.3mm
01:29 37.4 °F /  3 °C 34.2 °F /  1.2 °C 29.49in /  998.5hPa SW 3.0mph /  4.8km/h 7.0mph /  11.3km/h 88% 0.01in /  0.3mm
01:34 37.4 °F /  3 °C 34.2 °F /  1.2 °C 29.48in /  998.2hPa SW 1.0mph /  1.6km/h 7.0mph /  11.3km/h 88% 0.01in /  0.3mm
01:39 37.4 °F /  3 °C 34.2 °F /  1.2 °C 29.48in /  998.2hPa SW 4.0mph /  6.4km/h 7.0mph /  11.3km/h 88% 0.01in /  0.3mm
01:44 37.4 °F /  3 °C 34.2 °F /  1.2 °C 29.48in /  998.2hPa SW 4.0mph /  6.4km/h 7.0mph /  11.3km/h 88% 0.01in /  0.3mm
01:49 37.4 °F /  3 °C 34.2 °F /  1.2 °C 29.48in /  998.2hPa SW 3.0mph /  4.8km/h 6.0mph /  9.7km/h 88% 0.02in /  0.5mm
01:54 37.5 °F /  3.1 °C 34.3 °F /  1.3 °C 29.48in /  998.2hPa SW 3.0mph /  4.8km/h 7.0mph /  11.3km/h 88% 0.02in /  0.5mm
01:59 37.5 °F /  3.1 °C 34.3 °F /  1.3 °C 29.48in /  998.2hPa SW 2.0mph /  3.2km/h 8.0mph /  12.9km/h 88% 0.02in /  0.5mm
02:04 37.5 °F /  3.1 °C 34.3 °F /  1.3 °C 29.48in /  998.2hPa SW 3.0mph /  4.8km/h 8.0mph /  12.9km/h 88% 0.02in /  0.5mm
02:09 37.5 °F /  3.1 °C 34.3 °F /  1.3 °C 29.48in /  998.2hPa SW 4.0mph /  6.4km/h 9.0mph /  14.5km/h 88% 0.02in /  0.5mm
02:14 37.5 °F /  3.1 °C 34.3 °F /  1.3 °C 29.48in /  998.2hPa SW 4.0mph /  6.4km/h 9.0mph /  14.5km/h 88% 0.02in /  0.5mm
02:19 37.5 °F /  3.1 °C 34.3 °F /  1.3 °C 29.48in /  998.2hPa WSW 1.0mph /  1.6km/h 8.0mph /  12.9km/h 88% 0.02in /  0.5mm
02:24 37.5 °F /  3.1 °C 34.3 °F /  1.3 °C 29.48in /  998.2hPa WSW 2.0mph /  3.2km/h 7.0mph /  11.3km/h 88% 0.02in /  0.5mm
02:34 37.5 °F /  3.1 °C 34.3 °F /  1.3 °C 29.47in /  997.9hPa WSW 3.0mph /  4.8km/h 6.0mph /  9.7km/h 88% 0.02in /  0.5mm
02:39 37.5 °F /  3.1 °C 34.3 °F /  1.3 °C 29.48in /  998.2hPa WSW 2.0mph /  3.2km/h 6.0mph /  9.7km/h 88% 0.02in /  0.5mm
02:45 37.6 °F /  3.1 °C 34.4 °F /  1.3 °C 29.47in /  997.9hPa SW 4.0mph /  6.4km/h 7.0mph /  11.3km/h 88% 0.02in /  0.5mm
02:54 37.6 °F /  3.1 °C 34.4 °F /  1.3 °C 29.47in /  997.9hPa SSW 2.0mph /  3.2km/h 5.0mph /  8km/h 88% 0.02in /  0.5mm
03:04 37.6 °F /  3.1 °C 34.4 °F /  1.3 °C 29.47in /  997.9hPa SW 3.0mph /  4.8km/h 6.0mph /  9.7km/h 88% 0.02in /  0.5mm
03:09 37.6 °F /  3.1 °C 34.4 °F /  1.3 °C 29.47in /  997.9hPa WSW 3.0mph /  4.8km/h 7.0mph /  11.3km/h 88% 0.02in /  0.5mm
03:14 37.7 °F /  3.2 °C 34.5 °F /  1.4 °C 29.47in /  997.9hPa SW 4.0mph /  6.4km/h 7.0mph /  11.3km/h 88% 0.02in /  0.5mm
03:24 38.0 °F /  3.3 °C 34.5 °F /  1.4 °C 29.47in /  997.9hPa WSW 6.0mph /  9.7km/h 13.0mph /  20.9km/h 87% 0.02in /  0.5mm
03:34 37.9 °F /  3.3 °C 34.1 °F /  1.2 °C 29.47in /  997.9hPa SW 5.0mph /  8km/h 10.0mph /  16.1km/h 86% 0.02in /  0.5mm
03:39 37.8 °F /  3.2 °C 34.0 °F /  1.1 °C 29.47in /  997.9hPa WSW 6.0mph /  9.7km/h 12.0mph /  19.3km/h 86% 0.02in /  0.5mm
03:44 37.8 °F /  3.2 °C 34.0 °F /  1.1 °C 29.47in /  997.9hPa WSW 4.0mph /  6.4km/h 12.0mph /  19.3km/h 86% 0.02in /  0.5mm
03:49 37.8 °F /  3.2 °C 33.7 °F /  0.9 °C 29.47in /  997.9hPa WSW 6.0mph /  9.7km/h 10.0mph /  16.1km/h 85% 0.02in /  0.5mm
03:54 37.9 °F /  3.3 °C 33.8 °F /  1 °C 29.47in /  997.9hPa SW 4.0mph /  6.4km/h 9.0mph /  14.5km/h 85% 0.02in /  0.5mm
03:59 37.9 °F /  3.3 °C 33.8 °F /  1 °C 29.47in /  997.9hPa SW 3.0mph /  4.8km/h 10.0mph /  16.1km/h 85% 0.02in /  0.5mm
04:04 37.9 °F /  3.3 °C 33.8 °F /  1 °C 29.47in /  997.9hPa SW 3.0mph /  4.8km/h 10.0mph /  16.1km/h 85% 0.02in /  0.5mm
04:09 37.9 °F /  3.3 °C 33.8 °F /  1 °C 29.47in /  997.9hPa WSW 4.0mph /  6.4km/h 10.0mph /  16.1km/h 85% 0.02in /  0.5mm
04:14 37.9 °F /  3.3 °C 33.5 °F /  0.8 °C 29.47in /  997.9hPa SW 4.0mph /  6.4km/h 10.0mph /  16.1km/h 84% 0.02in /  0.5mm
04:19 37.9 °F /  3.3 °C 33.5 °F /  0.8 °C 29.47in /  997.9hPa SW 3.0mph /  4.8km/h 10.0mph /  16.1km/h 84% 0.02in /  0.5mm
04:24 37.9 °F /  3.3 °C 33.5 °F /  0.8 °C 29.47in /  997.9hPa WSW 2.0mph /  3.2km/h 10.0mph /  16.1km/h 84% 0.02in /  0.5mm
04:29 38.0 °F /  3.3 °C 33.6 °F /  0.9 °C 29.47in /  997.9hPa WSW 2.0mph /  3.2km/h 8.0mph /  12.9km/h 84% 0.02in /  0.5mm
04:34 38.0 °F /  3.3 °C 33.6 °F /  0.9 °C 29.47in /  997.9hPa WSW 4.0mph /  6.4km/h 8.0mph /  12.9km/h 84% 0.02in /  0.5mm
04:39 38.2 °F /  3.4 °C 33.5 °F /  0.8 °C 29.47in /  997.9hPa SW 1.0mph /  1.6km/h 8.0mph /  12.9km/h 83% 0.02in /  0.5mm
04:44 38.2 °F /  3.4 °C 33.5 °F /  0.8 °C 29.47in /  997.9hPa SW 3.0mph /  4.8km/h 9.0mph /  14.5km/h 83% 0.02in /  0.5mm
04:49 38.2 °F /  3.4 °C 33.5 °F /  0.8 °C 29.47in /  997.9hPa WSW 1.0mph /  1.6km/h 9.0mph /  14.5km/h 83% 0.02in /  0.5mm
04:54 38.1 °F /  3.4 °C 33.4 °F /  0.8 °C 29.47in /  997.9hPa WSW 2.0mph /  3.2km/h 8.0mph /  12.9km/h 83% 0.02in /  0.5mm
04:59 38.0 °F /  3.3 °C 33.3 °F /  0.7 °C 29.47in /  997.9hPa Calm   5.0mph /  8km/h 83% 0.02in /  0.5mm
05:04 37.8 °F /  3.2 °C 33.4 °F /  0.8 °C 29.47in /  997.9hPa Calm   4.0mph /  6.4km/h 84% 0.02in /  0.5mm
05:09 37.7 °F /  3.2 °C 33.3 °F /  0.7 °C 29.47in /  997.9hPa WSW 1.0mph /  1.6km/h 4.0mph /  6.4km/h 84% 0.02in /  0.5mm
05:14 37.7 °F /  3.2 °C 33.3 °F /  0.7 °C 29.47in /  997.9hPa WSW 1.0mph /  1.6km/h 5.0mph /  8km/h 84% 0.02in /  0.5mm
05:19 37.8 °F /  3.2 °C 33.4 °F /  0.8 °C 29.47in /  997.9hPa Calm   7.0mph /  11.3km/h 84% 0.02in /  0.5mm
05:25 37.9 °F /  3.3 °C 33.5 °F /  0.8 °C 29.47in /  997.9hPa WSW 2.0mph /  3.2km/h 7.0mph /  11.3km/h 84% 0.02in /  0.5mm
05:34 38.1 °F /  3.4 °C 33.7 °F /  0.9 °C 29.47in /  997.9hPa WSW 3.0mph /  4.8km/h 5.0mph /  8km/h 84% 0.02in /  0.5mm
05:39 38.1 °F /  3.4 °C 33.7 °F /  0.9 °C 29.47in /  997.9hPa WSW 3.0mph /  4.8km/h 5.0mph /  8km/h 84% 0.02in /  0.5mm
05:44 38.2 °F /  3.4 °C 33.8 °F /  1 °C 29.48in /  998.2hPa Calm   5.0mph /  8km/h 84% 0.02in /  0.5mm
05:49 38.1 °F /  3.4 °C 33.7 °F /  0.9 °C 29.47in /  997.9hPa Calm   5.0mph /  8km/h 84% 0.02in /  0.5mm
05:59 38.1 °F /  3.4 °C 33.7 °F /  0.9 °C 29.48in /  998.2hPa WSW 1.0mph /  1.6km/h 5.0mph /  8km/h 84% 0.02in /  0.5mm
06:04 38.1 °F /  3.4 °C 33.7 °F /  0.9 °C 29.48in /  998.2hPa Calm   5.0mph /  8km/h 84% 0.02in /  0.5mm
06:09 38.0 °F /  3.3 °C 33.6 °F /  0.9 °C 29.48in /  998.2hPa Calm   2.0mph /  3.2km/h 84% 0.02in /  0.5mm
06:14 38.0 °F /  3.3 °C 33.9 °F /  1.1 °C 29.48in /  998.2hPa Calm   4.0mph /  6.4km/h 85% 0.02in /  0.5mm
06:19 37.9 °F /  3.3 °C 33.8 °F /  1 °C 29.48in /  998.2hPa SSW 3.0mph /  4.8km/h 6.0mph /  9.7km/h 85% 0.02in /  0.5mm
06:24 38.0 °F /  3.3 °C 33.9 °F /  1.1 °C 29.48in /  998.2hPa SSW 1.0mph /  1.6km/h 6.0mph /  9.7km/h 85% 0.02in /  0.5mm
06:29 38.0 °F /  3.3 °C 33.9 °F /  1.1 °C 29.48in /  998.2hPa SW 2.0mph /  3.2km/h 6.0mph /  9.7km/h 85% 0.02in /  0.5mm
06:34 37.9 °F /  3.3 °C 33.8 °F /  1 °C 29.49in /  998.5hPa SSW 1.0mph /  1.6km/h 6.0mph /  9.7km/h 85% 0.02in /  0.5mm
06:39 37.9 °F /  3.3 °C 33.8 °F /  1 °C 29.48in /  998.2hPa SW 3.0mph /  4.8km/h 8.0mph /  12.9km/h 85% 0.02in /  0.5mm
06:44 37.9 °F /  3.3 °C 33.8 °F /  1 °C 29.48in /  998.2hPa SW 2.0mph /  3.2km/h 8.0mph /  12.9km/h 85% 0.02in /  0.5mm
06:49 37.9 °F /  3.3 °C 33.8 °F /  1 °C 29.48in /  998.2hPa SW 2.0mph /  3.2km/h 7.0mph /  11.3km/h 85% 0.02in /  0.5mm
06:54 37.9 °F /  3.3 °C 33.8 °F /  1 °C 29.48in /  998.2hPa SW 4.0mph /  6.4km/h 9.0mph /  14.5km/h 85% 0.02in /  0.5mm
06:59 38.0 °F /  3.3 °C 33.9 °F /  1.1 °C 29.48in /  998.2hPa SW 5.0mph /  8km/h 9.0mph /  14.5km/h 85% 0.02in /  0.5mm
07:04 38.0 °F /  3.3 °C 33.9 °F /  1.1 °C 29.49in /  998.5hPa SSW 2.0mph /  3.2km/h 8.0mph /  12.9km/h 85% 0.02in /  0.5mm
07:09 38.0 °F /  3.3 °C 33.9 °F /  1.1 °C 29.48in /  998.2hPa SSW 2.0mph /  3.2km/h 8.0mph /  12.9km/h 85% 0.02in /  0.5mm
07:14 38.0 °F /  3.3 °C 34.2 °F /  1.2 °C 29.49in /  998.5hPa SSW 5.0mph /  8km/h 7.0mph /  11.3km/h 86% 0.02in /  0.5mm
07:19 37.8 °F /  3.2 °C 34.0 °F /  1.1 °C 29.49in /  998.5hPa SW 2.0mph /  3.2km/h 7.0mph /  11.3km/h 86% 0.02in /  0.5mm
07:24 37.7 °F /  3.2 °C 33.9 °F /  1.1 °C 29.49in /  998.5hPa SSW 2.0mph /  3.2km/h 7.0mph /  11.3km/h 86% 0.02in /  0.5mm
07:29 37.7 °F /  3.2 °C 33.9 °F /  1.1 °C 29.49in /  998.5hPa SSW 3.0mph /  4.8km/h 9.0mph /  14.5km/h 86% 0.02in /  0.5mm
07:34 37.7 °F /  3.2 °C 34.2 °F /  1.2 °C 29.49in /  998.5hPa SSW 2.0mph /  3.2km/h 9.0mph /  14.5km/h 87% 0.02in /  0.5mm
07:39 37.8 °F /  3.2 °C 34.3 °F /  1.3 °C 29.49in /  998.5hPa SSW 2.0mph /  3.2km/h 5.0mph /  8km/h 87% 0.02in /  0.5mm
07:44 37.9 °F /  3.3 °C 34.4 °F /  1.3 °C 29.49in /  998.5hPa SSW 1.0mph /  1.6km/h 7.0mph /  11.3km/h 87% 0.02in /  0.5mm
07:49 37.8 °F /  3.2 °C 34.6 °F /  1.4 °C 29.49in /  998.5hPa SW 4.0mph /  6.4km/h 8.0mph /  12.9km/h 88% 0.02in /  0.5mm
07:54 37.8 °F /  3.2 °C 34.6 °F /  1.4 °C 29.49in /  998.5hPa SW 3.0mph /  4.8km/h 9.0mph /  14.5km/h 88% 0.02in /  0.5mm
07:59 37.9 °F /  3.3 °C 34.7 °F /  1.5 °C 29.49in /  998.5hPa SSW 4.0mph /  6.4km/h 9.0mph /  14.5km/h 88% 0.02in /  0.5mm
08:04 38.1 °F /  3.4 °C 34.9 °F /  1.6 °C 29.49in /  998.5hPa SSW 3.0mph /  4.8km/h 7.0mph /  11.3km/h 88% 0.02in /  0.5mm
08:09 38.3 °F /  3.5 °C 35.1 °F /  1.7 °C 29.50in /  998.9hPa SW 5.0mph /  8km/h 8.0mph /  12.9km/h 88% 0.02in /  0.5mm
08:14 38.6 °F /  3.7 °C 35.4 °F /  1.9 °C 29.50in /  998.9hPa SSW 1.0mph /  1.6km/h 8.0mph /  12.9km/h 88% 0.02in /  0.5mm
08:19 38.6 °F /  3.7 °C 35.4 °F /  1.9 °C 29.50in /  998.9hPa SSW 4.0mph /  6.4km/h 7.0mph /  11.3km/h 88% 0.02in /  0.5mm
08:24 38.6 °F /  3.7 °C 35.1 °F /  1.7 °C 29.50in /  998.9hPa SW 4.0mph /  6.4km/h 7.0mph /  11.3km/h 87% 0.02in /  0.5mm
08:29 38.6 °F /  3.7 °C 35.1 °F /  1.7 °C 29.50in /  998.9hPa SSW 4.0mph /  6.4km/h 7.0mph /  11.3km/h 87% 0.02in /  0.5mm
08:34 38.8 °F /  3.8 °C 35.3 °F /  1.8 °C 29.50in /  998.9hPa SSW 4.0mph /  6.4km/h 7.0mph /  11.3km/h 87% 0.02in /  0.5mm
08:39 39.0 °F /  3.9 °C 35.5 °F /  1.9 °C 29.50in /  998.9hPa SW 4.0mph /  6.4km/h 8.0mph /  12.9km/h 87% 0.02in /  0.5mm
08:44 39.2 °F /  4 °C 35.7 °F /  2.1 °C 29.50in /  998.9hPa SW 3.0mph /  4.8km/h 8.0mph /  12.9km/h 87% 0.02in /  0.5mm
08:50 39.3 °F /  4.1 °C 35.5 °F /  1.9 °C 29.50in /  998.9hPa SW 4.0mph /  6.4km/h 8.0mph /  12.9km/h 86% 0.02in /  0.5mm
08:59 39.8 °F /  4.3 °C 36.0 °F /  2.2 °C 29.50in /  998.9hPa SW 1.0mph /  1.6km/h 8.0mph /  12.9km/h 86% 0.02in /  0.5mm
09:04 40.1 °F /  4.5 °C 36.3 °F /  2.4 °C 29.51in /  999.2hPa SSW 1.0mph /  1.6km/h 7.0mph /  11.3km/h 86% 0.02in /  0.5mm
09:09 40.2 °F /  4.6 °C 36.4 °F /  2.4 °C 29.50in /  998.9hPa SSW 2.0mph /  3.2km/h 7.0mph /  11.3km/h 86% 0.03in /  0.8mm
09:19 40.3 °F /  4.6 °C 36.2 °F /  2.3 °C 29.51in /  999.2hPa SSW 5.0mph /  8km/h 8.0mph /  12.9km/h 85% 0.04in /  1mm
09:24 40.3 °F /  4.6 °C 36.2 °F /  2.3 °C 29.51in /  999.2hPa SW 4.0mph /  6.4km/h 7.0mph /  11.3km/h 85% 0.04in /  1mm
09:29 40.4 °F /  4.7 °C 36.3 °F /  2.4 °C 29.51in /  999.2hPa SW 3.0mph /  4.8km/h 6.0mph /  9.7km/h 85% 0.05in /  1.3mm
09:34 40.6 °F /  4.8 °C 36.7 °F /  2.6 °C 29.51in /  999.2hPa SSW 3.0mph /  4.8km/h 7.0mph /  11.3km/h 86% 0.05in /  1.3mm
09:39 40.9 °F /  4.9 °C 37.0 °F /  2.8 °C 29.51in /  999.2hPa SSW 2.0mph /  3.2km/h 7.0mph /  11.3km/h 86% 0.05in /  1.3mm
09:44 41.0 °F /  5 °C 36.8 °F /  2.7 °C 29.51in /  999.2hPa SSW 2.0mph /  3.2km/h 11.0mph /  17.7km/h 85% 0.06in /  1.5mm
09:49 41.0 °F /  5 °C 36.5 °F /  2.5 °C 29.51in /  999.2hPa SSW 5.0mph /  8km/h 11.0mph /  17.7km/h 84% 0.06in /  1.5mm
09:54 41.1 °F /  5.1 °C 36.9 °F /  2.7 °C 29.51in /  999.2hPa SW 2.0mph /  3.2km/h 10.0mph /  16.1km/h 85% 0.06in /  1.5mm
10:00 41.1 °F /  5.1 °C 36.6 °F /  2.6 °C 29.51in /  999.2hPa SW 4.0mph /  6.4km/h 12.0mph /  19.3km/h 84% 0.06in /  1.5mm
10:09 41.3 °F /  5.2 °C 37.1 °F /  2.8 °C 29.52in /  999.5hPa SSW 1.0mph /  1.6km/h 9.0mph /  14.5km/h 85% 0.07in /  1.8mm
10:19 41.3 °F /  5.2 °C 36.8 °F /  2.7 °C 29.52in /  999.5hPa SSW 2.0mph /  3.2km/h 9.0mph /  14.5km/h 84% 0.08in /  2mm
10:24 41.3 °F /  5.2 °C 36.8 °F /  2.7 °C 29.52in /  999.5hPa SW 3.0mph /  4.8km/h 8.0mph /  12.9km/h 84% 0.08in /  2mm
10:29 41.2 °F /  5.1 °C 36.4 °F /  2.4 °C 29.52in /  999.5hPa SW 5.0mph /  8km/h 12.0mph /  19.3km/h 83% 0.08in /  2mm
10:39 41.0 °F /  5 °C 36.5 °F /  2.5 °C 29.52in /  999.5hPa SW 4.0mph /  6.4km/h 14.0mph /  22.5km/h 84% 0.10in /  2.5mm
10:44 41.1 °F /  5.1 °C 36.9 °F /  2.7 °C 29.52in /  999.5hPa SW 3.0mph /  4.8km/h 14.0mph /  22.5km/h 85% 0.10in /  2.5mm
10:50 40.8 °F /  4.9 °C 36.3 °F /  2.4 °C 29.52in /  999.5hPa SW 5.0mph /  8km/h 10.0mph /  16.1km/h 84% 0.11in /  2.8mm
10:59 40.4 °F /  4.7 °C 36.0 °F /  2.2 °C 29.53in /  999.9hPa SSW 6.0mph /  9.7km/h 13.0mph /  20.9km/h 84% 0.12in /  3mm
11:04 40.2 °F /  4.6 °C 35.8 °F /  2.1 °C 29.53in /  999.9hPa WSW 4.0mph /  6.4km/h 10.0mph /  16.1km/h 84% 0.13in /  3.3mm
11:14 39.9 °F /  4.4 °C 35.8 °F /  2.1 °C 29.53in /  999.9hPa WSW 3.0mph /  4.8km/h 8.0mph /  12.9km/h 85% 0.16in /  4.1mm
11:19 40.0 °F /  4.4 °C 36.2 °F /  2.3 °C 29.53in /  999.9hPa SW 2.0mph /  3.2km/h 8.0mph /  12.9km/h 86% 0.16in /  4.1mm
11:24 40.2 °F /  4.6 °C 36.4 °F /  2.4 °C 29.53in /  999.9hPa WSW 4.0mph /  6.4km/h 10.0mph /  16.1km/h 86% 0.16in /  4.1mm
11:29 40.5 °F /  4.7 °C 36.6 °F /  2.6 °C 29.53in /  999.9hPa SW 5.0mph /  8km/h 10.0mph /  16.1km/h 86% 0.17in /  4.3mm
11:34 40.5 °F /  4.7 °C 36.6 °F /  2.6 °C 29.53in /  999.9hPa SW 7.0mph /  11.3km/h 14.0mph /  22.5km/h 86% 0.17in /  4.3mm
11:44 41.1 °F /  5.1 °C 37.2 °F /  2.9 °C 29.53in /  999.9hPa SSW 5.0mph /  8km/h 11.0mph /  17.7km/h 86% 0.18in /  4.6mm
11:49 41.3 °F /  5.2 °C 37.4 °F /  3 °C 29.53in /  999.9hPa SW 5.0mph /  8km/h 9.0mph /  14.5km/h 86% 0.18in /  4.6mm
11:54 41.6 °F /  5.3 °C 37.7 °F /  3.2 °C 29.53in /  999.9hPa SSW 4.0mph /  6.4km/h 9.0mph /  14.5km/h 86% 0.18in /  4.6mm
11:59 41.9 °F /  5.5 °C 38.0 °F /  3.3 °C 29.53in /  999.9hPa SW 2.0mph /  3.2km/h 10.0mph /  16.1km/h 86% 0.18in /  4.6mm
12:04 42.1 °F /  5.6 °C 37.9 °F /  3.3 °C 29.53in /  999.9hPa SW 5.0mph /  8km/h 10.0mph /  16.1km/h 85% 0.18in /  4.6mm
12:09 42.0 °F /  5.6 °C 37.5 °F /  3.1 °C 29.53in /  999.9hPa SSW 6.0mph /  9.7km/h 9.0mph /  14.5km/h 84% 0.18in /  4.6mm
12:14 42.0 °F /  5.6 °C 37.5 °F /  3.1 °C 29.53in /  999.9hPa SW 5.0mph /  8km/h 9.0mph /  14.5km/h 84% 0.18in /  4.6mm
12:19 42.2 °F /  5.7 °C 38.0 °F /  3.3 °C 29.52in /  999.5hPa SSW 5.0mph /  8km/h 7.0mph /  11.3km/h 85% 0.18in /  4.6mm
12:24 42.6 °F /  5.9 °C 38.4 °F /  3.6 °C 29.52in /  999.5hPa South 2.0mph /  3.2km/h 7.0mph /  11.3km/h 85% 0.18in /  4.6mm
12:39 44.1 °F /  6.7 °C 39.6 °F /  4.2 °C 29.52in /  999.5hPa SSW 3.0mph /  4.8km/h 10.0mph /  16.1km/h 84% 0.18in /  4.6mm
12:49 44.0 °F /  6.7 °C 37.9 °F /  3.3 °C 29.52in /  999.5hPa SW 6.0mph /  9.7km/h 10.0mph /  16.1km/h 79% 0.18in /  4.6mm
12:54 43.7 °F /  6.5 °C 37.0 °F /  2.8 °C 29.52in /  999.5hPa SSW 5.0mph /  8km/h 10.0mph /  16.1km/h 77% 0.18in /  4.6mm
12:59 43.6 °F /  6.4 °C 36.9 °F /  2.7 °C 29.52in /  999.5hPa SW 4.0mph /  6.4km/h 10.0mph /  16.1km/h 77% 0.18in /  4.6mm
13:04 43.6 °F /  6.4 °C 37.2 °F /  2.9 °C 29.52in /  999.5hPa SW 4.0mph /  6.4km/h 10.0mph /  16.1km/h 78% 0.18in /  4.6mm
13:09 43.8 °F /  6.6 °C 37.4 °F /  3 °C 29.52in /  999.5hPa SW 3.0mph /  4.8km/h 9.0mph /  14.5km/h 78% 0.18in /  4.6mm
13:14 44.0 °F /  6.7 °C 37.9 °F /  3.3 °C 29.52in /  999.5hPa Calm   9.0mph /  14.5km/h 79% 0.18in /  4.6mm
13:19 44.2 °F /  6.8 °C 38.4 °F /  3.6 °C 29.52in /  999.5hPa West 2.0mph /  3.2km/h 8.0mph /  12.9km/h 80% 0.18in /  4.6mm
13:24 44.7 °F /  7.1 °C 38.9 °F /  3.8 °C 29.52in /  999.5hPa SW 2.0mph /  3.2km/h 8.0mph /  12.9km/h 80% 0.18in /  4.6mm
13:29 45.0 °F /  7.2 °C 38.2 °F /  3.4 °C 29.52in /  999.5hPa SSW 4.0mph /  6.4km/h 8.0mph /  12.9km/h 77% 0.18in /  4.6mm
13:34 45.4 °F /  7.4 °C 39.6 °F /  4.2 °C 29.52in /  999.5hPa SSW 1.0mph /  1.6km/h 8.0mph /  12.9km/h 80% 0.18in /  4.6mm
13:44 45.1 °F /  7.3 °C 37.7 °F /  3.2 °C 29.52in /  999.5hPa SSW 5.0mph /  8km/h 11.0mph /  17.7km/h 75% 0.18in /  4.6mm
13:50 44.8 °F /  7.1 °C 38.0 °F /  3.3 °C 29.52in /  999.5hPa SSW 3.0mph /  4.8km/h 9.0mph /  14.5km/h 77% 0.18in /  4.6mm
13:54 44.1 °F /  6.7 °C 37.4 °F /  3 °C 29.52in /  999.5hPa SW 3.0mph /  4.8km/h 10.0mph /  16.1km/h 77% 0.19in /  4.8mm
13:59 43.8 °F /  6.6 °C 37.7 °F /  3.2 °C 29.52in /  999.5hPa WSW 2.0mph /  3.2km/h 10.0mph /  16.1km/h 79% 0.19in /  4.8mm
14:10 43.2 °F /  6.2 °C 37.8 °F /  3.2 °C 29.52in /  999.5hPa SSW 1.0mph /  1.6km/h 6.0mph /  9.7km/h 81% 0.20in /  5.1mm
14:19 43.1 °F /  6.2 °C 38.0 °F /  3.3 °C 29.53in /  999.9hPa NW 8.0mph /  12.9km/h 13.0mph /  20.9km/h 82% 0.20in /  5.1mm
14:25 42.6 °F /  5.9 °C 37.5 °F /  3.1 °C 29.53in /  999.9hPa NNW 5.0mph /  8km/h 13.0mph /  20.9km/h 82% 0.20in /  5.1mm
14:34 41.6 °F /  5.3 °C 36.8 °F /  2.7 °C 29.53in /  999.9hPa NW 4.0mph /  6.4km/h 8.0mph /  12.9km/h 83% 0.21in /  5.3mm
14:44 40.7 °F /  4.8 °C 36.2 °F /  2.3 °C 29.54in /  1000.2hPa NW 4.0mph /  6.4km/h 6.0mph /  9.7km/h 84% 0.22in /  5.6mm
14:54 39.8 °F /  4.3 °C 35.7 °F /  2.1 °C 29.55in /  1000.6hPa WNW 6.0mph /  9.7km/h 11.0mph /  17.7km/h 85% 0.25in /  6.4mm
14:59 39.3 °F /  4.1 °C 35.5 °F /  1.9 °C 29.56in /  1000.9hPa WNW 4.0mph /  6.4km/h 11.0mph /  17.7km/h 86% 0.27in /  6.9mm
15:04 39.0 °F /  3.9 °C 35.2 °F /  1.8 °C 29.55in /  1000.6hPa West 2.0mph /  3.2km/h 10.0mph /  16.1km/h 86% 0.28in /  7.1mm
15:09 39.0 °F /  3.9 °C 35.5 °F /  1.9 °C 29.55in /  1000.6hPa Calm   9.0mph /  14.5km/h 87% 0.30in /  7.6mm
15:19 40.1 °F /  4.5 °C 36.8 °F /  2.7 °C 29.55in /  1000.6hPa Calm     88% 0.30in /  7.6mm
15:24 40.1 °F /  4.5 °C 36.8 °F /  2.7 °C 29.55in /  1000.6hPa Calm   1.0mph /  1.6km/h 88% 0.30in /  7.6mm
15:29 40.4 °F /  4.7 °C 37.1 °F /  2.8 °C 29.56in /  1000.9hPa West 1.0mph /  1.6km/h 4.0mph /  6.4km/h 88% 0.30in /  7.6mm
15:34 40.6 °F /  4.8 °C 37.3 °F /  2.9 °C 29.55in /  1000.6hPa Calm   4.0mph /  6.4km/h 88% 0.30in /  7.6mm
15:39 41.2 °F /  5.1 °C 37.9 °F /  3.3 °C 29.55in /  1000.6hPa Calm   1.0mph /  1.6km/h 88% 0.30in /  7.6mm
15:45 41.3 °F /  5.2 °C 38.0 °F /  3.3 °C 29.56in /  1000.9hPa Calm   1.0mph /  1.6km/h 88% 0.30in /  7.6mm
15:54 41.2 °F /  5.1 °C 37.3 °F /  2.9 °C 29.56in /  1000.9hPa Calm   3.0mph /  4.8km/h 86% 0.31in /  7.9mm
15:59 40.9 °F /  4.9 °C 36.7 °F /  2.6 °C 29.56in /  1000.9hPa West 1.0mph /  1.6km/h 6.0mph /  9.7km/h 85% 0.31in /  7.9mm
16:04 40.9 °F /  4.9 °C 37.0 °F /  2.8 °C 29.56in /  1000.9hPa SW 2.0mph /  3.2km/h 6.0mph /  9.7km/h 86% 0.31in /  7.9mm
16:09 40.9 °F /  4.9 °C 36.7 °F /  2.6 °C 29.57in /  1001.2hPa West 4.0mph /  6.4km/h 10.0mph /  16.1km/h 85% 0.31in /  7.9mm
16:15 40.9 °F /  4.9 °C 37.0 °F /  2.8 °C 29.57in /  1001.2hPa West 4.0mph /  6.4km/h 11.0mph /  17.7km/h 86% 0.32in /  8.1mm
16:24 40.8 °F /  4.9 °C 36.6 °F /  2.6 °C 29.57in /  1001.2hPa WNW 4.0mph /  6.4km/h 7.0mph /  11.3km/h 85% 0.32in /  8.1mm
16:29 41.0 °F /  5 °C 37.1 °F /  2.8 °C 29.57in /  1001.2hPa WSW 4.0mph /  6.4km/h 7.0mph /  11.3km/h 86% 0.32in /  8.1mm
16:35 41.1 °F /  5.1 °C 37.2 °F /  2.9 °C 29.57in /  1001.2hPa WSW 3.0mph /  4.8km/h 9.0mph /  14.5km/h 86% 0.32in /  8.1mm
16:44 41.1 °F /  5.1 °C 36.9 °F /  2.7 °C 29.58in /  1001.6hPa SW 4.0mph /  6.4km/h 11.0mph /  17.7km/h 85% 0.33in /  8.4mm
16:50 41.1 °F /  5.1 °C 36.9 °F /  2.7 °C 29.58in /  1001.6hPa West 4.0mph /  6.4km/h 11.0mph /  17.7km/h 85% 0.33in /  8.4mm
16:59 41.0 °F /  5 °C 38.0 °F /  3.3 °C 29.58in /  1001.6hPa WNW 5.0mph /  8km/h 9.0mph /  14.5km/h 89% 0.34in /  8.6mm
17:04 41.1 °F /  5.1 °C 36.9 °F /  2.7 °C 29.58in /  1001.6hPa WNW 7.0mph /  11.3km/h 14.0mph /  22.5km/h 85% 0.34in /  8.6mm
17:09 41.2 °F /  5.1 °C 37.0 °F /  2.8 °C 29.59in /  1001.9hPa WNW 6.0mph /  9.7km/h 14.0mph /  22.5km/h 85% 0.34in /  8.6mm
17:14 41.2 °F /  5.1 °C 37.3 °F /  2.9 °C 29.59in /  1001.9hPa WNW 1.0mph /  1.6km/h 10.0mph /  16.1km/h 86% 0.34in /  8.6mm
17:24 41.3 °F /  5.2 °C 37.4 °F /  3 °C 29.59in /  1001.9hPa Calm   5.0mph /  8km/h 86% 0.34in /  8.6mm
17:29 41.1 °F /  5.1 °C 37.2 °F /  2.9 °C 29.59in /  1001.9hPa Calm   5.0mph /  8km/h 86% 0.34in /  8.6mm
17:35 41.0 °F /  5 °C 37.1 °F /  2.8 °C 29.60in /  1002.3hPa Calm   2.0mph /  3.2km/h 86% 0.34in /  8.6mm
17:44 40.8 °F /  4.9 °C 36.9 °F /  2.7 °C 29.60in /  1002.3hPa Calm   1.0mph /  1.6km/h 86% 0.34in /  8.6mm
17:54 40.6 °F /  4.8 °C 36.7 °F /  2.6 °C 29.61in /  1002.6hPa Calm     86% 0.34in /  8.6mm
18:04 40.6 °F /  4.8 °C 36.7 °F /  2.6 °C 29.62in /  1002.9hPa Calm   3.0mph /  4.8km/h 86% 0.36in /  9.1mm
18:14 39.8 °F /  4.3 °C 36.0 °F /  2.2 °C 29.62in /  1002.9hPa WNW 3.0mph /  4.8km/h 7.0mph /  11.3km/h 86% 0.39in /  9.9mm
18:19 39.6 °F /  4.2 °C 35.8 °F /  2.1 °C 29.62in /  1002.9hPa West 1.0mph /  1.6km/h 7.0mph /  11.3km/h 86% 0.39in /  9.9mm
18:24 39.7 °F /  4.3 °C 36.2 °F /  2.3 °C 29.63in /  1003.3hPa West 1.0mph /  1.6km/h 5.0mph /  8km/h 87% 0.39in /  9.9mm
18:34 39.7 °F /  4.3 °C 36.2 °F /  2.3 °C 29.63in /  1003.3hPa Calm   6.0mph /  9.7km/h 87% 0.40in /  10.2mm
18:39 39.8 °F /  4.3 °C 36.3 °F /  2.4 °C 29.63in /  1003.3hPa Calm   4.0mph /  6.4km/h 87% 0.40in /  10.2mm
18:50 39.9 °F /  4.4 °C 36.3 °F /  2.4 °C 29.63in /  1003.3hPa Calm     87% 0.40in /  10.2mm
18:59 39.9 °F /  4.4 °C 36.6 °F /  2.6 °C 29.64in /  1003.6hPa Calm     88% 0.41in /  10.4mm
19:04 39.8 °F /  4.3 °C 36.5 °F /  2.5 °C 29.64in /  1003.6hPa SW 2.0mph /  3.2km/h 3.0mph /  4.8km/h 88% 0.41in /  10.4mm
19:09 39.7 °F /  4.3 °C 36.4 °F /  2.4 °C 29.64in /  1003.6hPa SW 1.0mph /  1.6km/h 4.0mph /  6.4km/h 88% 0.41in /  10.4mm
19:14 39.6 °F /  4.2 °C 36.3 °F /  2.4 °C 29.64in /  1003.6hPa SW 2.0mph /  3.2km/h 6.0mph /  9.7km/h 88% 0.42in /  10.7mm
19:19 39.6 °F /  4.2 °C 36.3 °F /  2.4 °C 29.64in /  1003.6hPa Calm   6.0mph /  9.7km/h 88% 0.42in /  10.7mm
19:24 39.5 °F /  4.2 °C 36.2 °F /  2.3 °C 29.65in /  1003.9hPa SW 2.0mph /  3.2km/h 5.0mph /  8km/h 88% 0.42in /  10.7mm
19:29 39.5 °F /  4.2 °C 36.2 °F /  2.3 °C 29.65in /  1003.9hPa SW 1.0mph /  1.6km/h 5.0mph /  8km/h 88% 0.42in /  10.7mm
19:35 39.5 °F /  4.2 °C 36.2 °F /  2.3 °C 29.65in /  1003.9hPa SW 2.0mph /  3.2km/h 4.0mph /  6.4km/h 88% 0.42in /  10.7mm
19:44 39.4 °F /  4.1 °C 36.1 °F /  2.3 °C 29.66in /  1004.3hPa Calm   2.0mph /  3.2km/h 88% 0.43in /  10.9mm
19:49 39.3 °F /  4.1 °C 36.0 °F /  2.2 °C 29.66in /  1004.3hPa WSW 4.0mph /  6.4km/h 9.0mph /  14.5km/h 88% 0.44in /  11.2mm
19:54 39.2 °F /  4 °C 35.9 °F /  2.2 °C 29.66in /  1004.3hPa SW 2.0mph /  3.2km/h 9.0mph /  14.5km/h 88% 0.44in /  11.2mm
19:59 39.2 °F /  4 °C 35.9 °F /  2.2 °C 29.66in /  1004.3hPa SW 4.0mph /  6.4km/h 8.0mph /  12.9km/h 88% 0.45in /  11.4mm
20:04 39.3 °F /  4.1 °C 36.0 °F /  2.2 °C 29.66in /  1004.3hPa SW 5.0mph /  8km/h 8.0mph /  12.9km/h 88% 0.45in /  11.4mm
20:09 39.2 °F /  4 °C 35.7 °F /  2.1 °C 29.67in /  1004.6hPa SW 4.0mph /  6.4km/h 8.0mph /  12.9km/h 87% 0.45in /  11.4mm
20:14 39.0 °F /  3.9 °C 35.2 °F /  1.8 °C 29.67in /  1004.6hPa SSW 7.0mph /  11.3km/h 11.0mph /  17.7km/h 86% 0.46in /  11.7mm
20:19 38.9 °F /  3.8 °C 35.1 °F /  1.7 °C 29.67in /  1004.6hPa SW 2.0mph /  3.2km/h 11.0mph /  17.7km/h 86% 0.46in /  11.7mm
20:24 38.9 °F /  3.8 °C 35.1 °F /  1.7 °C 29.67in /  1004.6hPa SW 1.0mph /  1.6km/h 11.0mph /  17.7km/h 86% 0.47in /  11.9mm
20:29 38.9 °F /  3.8 °C 35.1 °F /  1.7 °C 29.68in /  1005hPa SW 1.0mph /  1.6km/h 5.0mph /  8km/h 86% 0.47in /  11.9mm
20:34 38.8 °F /  3.8 °C 35.0 °F /  1.7 °C 29.68in /  1005hPa SSW 1.0mph /  1.6km/h 4.0mph /  6.4km/h 86% 0.48in /  12.2mm
20:39 38.7 °F /  3.7 °C 35.2 °F /  1.8 °C 29.68in /  1005hPa SSW 3.0mph /  4.8km/h 7.0mph /  11.3km/h 87% 0.48in /  12.2mm
20:44 38.7 °F /  3.7 °C 34.9 °F /  1.6 °C 29.68in /  1005hPa SSW 1.0mph /  1.6km/h 7.0mph /  11.3km/h 86% 0.49in /  12.4mm
20:54 38.7 °F /  3.7 °C 35.2 °F /  1.8 °C 29.69in /  1005.3hPa SSW 2.0mph /  3.2km/h 5.0mph /  8km/h 87% 0.50in /  12.7mm
20:59 38.7 °F /  3.7 °C 35.2 °F /  1.8 °C 29.69in /  1005.3hPa Calm   4.0mph /  6.4km/h 87% 0.51in /  13mm
21:04 38.6 °F /  3.7 °C 35.4 °F /  1.9 °C 29.69in /  1005.3hPa Calm     88% 0.52in /  13.2mm
21:09 38.6 °F /  3.7 °C 35.4 °F /  1.9 °C 29.69in /  1005.3hPa Calm     88% 0.52in /  13.2mm
21:14 38.5 °F /  3.6 °C 35.3 °F /  1.8 °C 29.69in /  1005.3hPa Calm   1.0mph /  1.6km/h 88% 0.52in /  13.2mm
21:19 38.4 °F /  3.6 °C 35.2 °F /  1.8 °C 29.69in /  1005.3hPa Calm   1.0mph /  1.6km/h 88% 0.53in /  13.5mm
21:24 38.3 °F /  3.5 °C 35.1 °F /  1.7 °C 29.69in /  1005.3hPa Calm   4.0mph /  6.4km/h 88% 0.53in /  13.5mm
21:29 38.2 °F /  3.4 °C 35.0 °F /  1.7 °C 29.69in /  1005.3hPa Calm   4.0mph /  6.4km/h 88% 0.53in /  13.5mm
21:34 38.2 °F /  3.4 °C 35.0 °F /  1.7 °C 29.69in /  1005.3hPa SSW 1.0mph /  1.6km/h 2.0mph /  3.2km/h 88% 0.54in /  13.7mm
21:40 38.2 °F /  3.4 °C 35.0 °F /  1.7 °C 29.69in /  1005.3hPa Calm   4.0mph /  6.4km/h 88% 0.54in /  13.7mm
21:49 38.2 °F /  3.4 °C 35.2 °F /  1.8 °C 29.69in /  1005.3hPa SSW 1.0mph /  1.6km/h 4.0mph /  6.4km/h 89% 0.54in /  13.7mm
21:54 38.2 °F /  3.4 °C 35.2 °F /  1.8 °C 29.69in /  1005.3hPa Calm   4.0mph /  6.4km/h 89% 0.54in /  13.7mm
22:05 38.2 °F /  3.4 °C 35.2 °F /  1.8 °C 29.69in /  1005.3hPa Calm     89% 0.56in /  14.2mm
22:10 38.2 °F /  3.4 °C 35.2 °F /  1.8 °C 29.69in /  1005.3hPa Calm   1.0mph /  1.6km/h 89% 0.56in /  14.2mm
22:20 38.1 °F /  3.4 °C 35.1 °F /  1.7 °C 29.69in /  1005.3hPa Calm   2.0mph /  3.2km/h 89% 0.57in /  14.5mm
22:25 38.1 °F /  3.4 °C 35.1 °F /  1.7 °C 29.69in /  1005.3hPa SSW 1.0mph /  1.6km/h 3.0mph /  4.8km/h 89% 0.58in /  14.7mm
22:30 38.1 °F /  3.4 °C 35.1 °F /  1.7 °C 29.69in /  1005.3hPa Calm   3.0mph /  4.8km/h 89% 0.58in /  14.7mm
22:35 38.1 °F /  3.4 °C 35.1 °F /  1.7 °C 29.69in /  1005.3hPa Calm   2.0mph /  3.2km/h 89% 0.58in /  14.7mm
22:45 38.0 °F /  3.3 °C 35.0 °F /  1.7 °C 29.69in /  1005.3hPa Calm   4.0mph /  6.4km/h 89% 0.59in /  15mm
22:55 37.9 °F /  3.3 °C 35.0 °F /  1.7 °C 29.70in /  1005.6hPa SW 3.0mph /  4.8km/h 8.0mph /  12.9km/h 89% 0.60in /  15.2mm
23:00 37.9 °F /  3.3 °C 34.7 °F /  1.5 °C 29.70in /  1005.6hPa WSW 2.0mph /  3.2km/h 8.0mph /  12.9km/h 88% 0.60in /  15.2mm
23:05 38.0 °F /  3.3 °C 34.8 °F /  1.6 °C 29.70in /  1005.6hPa WSW 4.0mph /  6.4km/h 8.0mph /  12.9km/h 88% 0.60in /  15.2mm
23:15 38.0 °F /  3.3 °C 34.8 °F /  1.6 °C 29.70in /  1005.6hPa WSW 2.0mph /  3.2km/h 10.0mph /  16.1km/h 88% 0.62in /  15.7mm
23:20 37.9 °F /  3.3 °C 34.7 °F /  1.5 °C 29.70in /  1005.6hPa WSW 1.0mph /  1.6km/h 7.0mph /  11.3km/h 88% 0.62in /  15.7mm
23:25 37.9 °F /  3.3 °C 34.7 °F /  1.5 °C 29.70in /  1005.6hPa SW 1.0mph /  1.6km/h 6.0mph /  9.7km/h 88% 0.62in /  15.7mm
23:40 37.5 °F /  3.1 °C 34.3 °F /  1.3 °C 29.70in /  1005.6hPa SW 1.0mph /  1.6km/h 4.0mph /  6.4km/h 88% 0.63in /  16mm
23:45 37.4 °F /  3 °C 34.2 °F /  1.2 °C 29.70in /  1005.6hPa Calm   4.0mph /  6.4km/h 88% 0.63in /  16mm
23:50 37.3 °F /  2.9 °C 34.4 °F /  1.3 °C 29.70in /  1005.6hPa Calm   4.0mph /  6.4km/h 89% 0.63in /  16mm
23:55 37.2 °F /  2.9 °C 34.3 °F /  1.3 °C 29.70in /  1005.6hPa Calm   4.0mph /  6.4km/h 89% 0.63in /  16mm
Westford Weather
Compliments of Weather Underground

 
 
Current Radar Loop:

Copyright © WestfordWeather.net 2007-2014. All rights reserved.